createdAt,value
2022-09-18T00:01:41.321Z,12.20
2022-09-18T00:04:13.862Z,12.20
2022-09-18T00:06:45.567Z,12.20
2022-09-18T00:09:16.000Z,12.20
2022-09-18T00:11:47.502Z,12.10
2022-09-18T00:14:18.592Z,12.10
2022-09-18T00:16:46.721Z,12.10
2022-09-18T00:19:15.542Z,12.10
2022-09-18T00:21:48.301Z,12.10
2022-09-18T00:24:17.830Z,12.10
2022-09-18T00:26:46.693Z,12.10
2022-09-18T00:29:16.196Z,12.10
2022-09-18T00:31:44.669Z,12.00
2022-09-18T00:34:15.622Z,12.10
2022-09-18T00:36:45.366Z,12.00
2022-09-18T00:39:14.639Z,12.10
2022-09-18T00:41:44.812Z,12.10
2022-09-18T00:44:36.491Z,12.00
2022-09-18T00:47:27.636Z,12.10
2022-09-18T00:50:07.786Z,12.10
2022-09-18T00:52:48.457Z,12.10
2022-09-18T00:55:20.400Z,12.10
2022-09-18T00:57:54.399Z,12.10
2022-09-18T01:00:23.748Z,12.00
2022-09-18T01:02:52.406Z,12.10
2022-09-18T01:05:29.192Z,12.10
2022-09-18T01:08:17.184Z,12.10
2022-09-18T01:11:02.053Z,12.10
2022-09-18T01:13:43.510Z,12.10
2022-09-18T01:16:23.629Z,12.10
2022-09-18T01:19:03.855Z,12.00
2022-09-18T01:21:36.831Z,12.10
2022-09-18T01:24:41.460Z,12.10
2022-09-18T01:27:17.628Z,12.00
2022-09-18T01:29:56.989Z,12.10
2022-09-18T01:32:31.457Z,12.00
2022-09-18T01:35:18.697Z,12.00
2022-09-18T01:38:02.197Z,12.00
2022-09-18T01:40:36.512Z,12.10
2022-09-18T01:43:08.628Z,12.00
2022-09-18T01:45:45.322Z,12.00
2022-09-18T01:48:20.223Z,12.00
2022-09-18T01:50:56.491Z,12.00
2022-09-18T01:53:29.609Z,12.00
2022-09-18T01:56:04.492Z,12.00
2022-09-18T01:58:35.548Z,12.00
2022-09-18T02:01:13.072Z,12.00
2022-09-18T02:03:46.217Z,12.00
2022-09-18T02:06:19.401Z,12.00
2022-09-18T02:08:51.177Z,12.00
2022-09-18T02:11:21.057Z,12.00
2022-09-18T02:13:55.149Z,12.00
2022-09-18T02:16:30.875Z,12.00
2022-09-18T02:19:07.031Z,12.00
2022-09-18T02:21:35.952Z,12.00
2022-09-18T02:24:10.264Z,12.00
2022-09-18T02:26:41.069Z,11.90
2022-09-18T02:29:13.285Z,12.00
2022-09-18T02:31:43.112Z,11.90
2022-09-18T02:34:13.647Z,11.90
2022-09-18T02:37:02.113Z,11.90
2022-09-18T02:39:50.504Z,11.90
2022-09-18T02:42:34.056Z,11.80
2022-09-18T02:45:13.699Z,11.90
2022-09-18T02:48:02.815Z,11.90
2022-09-18T02:50:39.225Z,11.80
2022-09-18T02:53:12.122Z,11.80
2022-09-18T02:55:45.812Z,11.80
2022-09-18T02:58:21.005Z,11.80
2022-09-18T03:00:50.441Z,11.80
2022-09-18T03:03:20.220Z,11.80
2022-09-18T03:05:48.576Z,11.80
2022-09-18T03:08:16.816Z,11.80
2022-09-18T03:10:45.009Z,11.80
2022-09-18T03:13:13.458Z,11.80
2022-09-18T03:15:41.785Z,11.80
2022-09-18T03:18:10.154Z,11.80
2022-09-18T03:20:41.697Z,11.80
2022-09-18T03:23:10.024Z,11.80
2022-09-18T03:25:38.443Z,11.80
2022-09-18T03:28:07.104Z,11.80
2022-09-18T03:30:35.443Z,11.80
2022-09-18T03:33:03.887Z,11.80
2022-09-18T03:35:32.906Z,11.80
2022-09-18T03:38:02.573Z,11.80
2022-09-18T03:40:30.819Z,11.80
2022-09-18T03:42:59.094Z,11.80
2022-09-18T03:45:27.334Z,11.80
2022-09-18T03:47:55.518Z,11.80
2022-09-18T03:50:23.752Z,11.80
2022-09-18T03:52:52.005Z,11.80
2022-09-18T03:55:22.595Z,11.80
2022-09-18T03:57:50.941Z,11.80
2022-09-18T04:00:19.260Z,11.80
2022-09-18T04:02:47.585Z,11.80
2022-09-18T04:05:16.099Z,11.80
2022-09-18T04:07:44.391Z,11.80
2022-09-18T04:10:12.734Z,11.80
2022-09-18T04:12:45.177Z,11.80
2022-09-18T04:15:13.426Z,11.80
2022-09-18T04:17:41.844Z,11.70
2022-09-18T04:20:11.012Z,11.80
2022-09-18T04:22:39.356Z,11.80
2022-09-18T04:25:08.830Z,11.80
2022-09-18T04:27:37.284Z,11.80
2022-09-18T04:30:10.030Z,11.80
2022-09-18T04:32:38.271Z,11.80
2022-09-18T04:35:08.030Z,11.80
2022-09-18T04:37:36.388Z,11.80
2022-09-18T04:40:05.886Z,11.80
2022-09-18T04:42:34.141Z,11.80
2022-09-18T04:45:02.404Z,11.80
2022-09-18T04:47:32.037Z,11.80
2022-09-18T04:50:00.230Z,11.80
2022-09-18T04:52:28.638Z,11.80
2022-09-18T04:54:56.985Z,11.90
2022-09-18T04:57:25.245Z,11.80
2022-09-18T04:59:53.581Z,11.90
2022-09-18T05:02:21.896Z,11.90
2022-09-18T05:04:51.780Z,11.90
2022-09-18T05:07:20.136Z,11.80
2022-09-18T05:09:48.344Z,11.80
2022-09-18T05:12:16.571Z,11.90
2022-09-18T05:14:44.763Z,11.90
2022-09-18T05:17:13.035Z,11.90
2022-09-18T05:19:41.289Z,11.90
2022-09-18T05:22:10.897Z,11.80
2022-09-18T05:24:39.115Z,11.80
2022-09-18T05:27:07.602Z,11.90
2022-09-18T05:29:35.805Z,11.90
2022-09-18T05:32:04.726Z,11.80
2022-09-18T05:34:32.985Z,11.90
2022-09-18T05:37:01.303Z,11.90
2022-09-18T05:39:31.434Z,11.90
2022-09-18T05:41:59.791Z,11.90
2022-09-18T05:44:28.025Z,11.90
2022-09-18T05:46:56.273Z,11.90
2022-09-18T05:49:24.529Z,11.90
2022-09-18T05:51:54.452Z,11.90
2022-09-18T05:54:22.892Z,12.00
2022-09-18T05:56:52.462Z,11.90
2022-09-18T05:59:20.692Z,11.90
2022-09-18T06:01:48.928Z,11.90
2022-09-18T06:04:17.285Z,11.90
2022-09-18T06:06:45.504Z,11.90
2022-09-18T06:09:13.944Z,12.00
2022-09-18T06:11:42.141Z,12.00
2022-09-18T06:14:11.816Z,12.00
2022-09-18T06:16:42.325Z,12.00
2022-09-18T06:19:11.053Z,12.00
2022-09-18T06:21:39.408Z,12.10
2022-09-18T06:24:08.916Z,12.00
2022-09-18T06:26:37.309Z,12.10
2022-09-18T06:29:05.547Z,12.10
2022-09-18T06:31:35.160Z,12.10
2022-09-18T06:34:03.484Z,12.10
2022-09-18T06:36:31.736Z,12.20
2022-09-18T06:39:00.276Z,12.20
2022-09-18T06:41:28.589Z,12.20
2022-09-18T06:43:56.807Z,12.20
2022-09-18T06:46:25.469Z,12.20
2022-09-18T06:48:55.119Z,12.20
2022-09-18T06:51:23.395Z,12.20
2022-09-18T06:53:51.610Z,12.20
2022-09-18T06:56:20.280Z,12.30
2022-09-18T06:58:48.585Z,12.30
2022-09-18T07:01:16.895Z,12.30
2022-09-18T07:03:45.167Z,12.40
2022-09-18T07:06:14.836Z,12.50
2022-09-18T07:08:43.152Z,12.50
2022-09-18T07:11:11.579Z,12.50
2022-09-18T07:13:39.850Z,12.60
2022-09-18T07:16:08.383Z,12.60
2022-09-18T07:18:36.670Z,12.70
2022-09-18T07:21:05.429Z,12.70
2022-09-18T07:23:35.852Z,12.70
2022-09-18T07:26:05.574Z,12.80
2022-09-18T07:28:34.149Z,12.80
2022-09-18T07:31:04.796Z,12.80
2022-09-18T07:33:34.052Z,12.90
2022-09-18T07:36:02.779Z,12.90
2022-09-18T07:38:31.812Z,13.00
2022-09-18T07:41:05.289Z,13.00
2022-09-18T07:43:33.855Z,13.00
2022-09-18T07:46:02.525Z,13.00
2022-09-18T07:48:30.958Z,13.00
2022-09-18T07:50:59.903Z,13.00
2022-09-18T07:53:29.505Z,13.10
2022-09-18T07:55:57.821Z,13.10
2022-09-18T07:58:27.997Z,13.10
2022-09-18T08:00:57.052Z,13.20
2022-09-18T08:03:26.316Z,13.10
2022-09-18T08:05:54.934Z,13.10
2022-09-18T08:08:23.339Z,13.10
2022-09-18T08:10:51.989Z,13.20
2022-09-18T08:13:20.239Z,13.20
2022-09-18T08:15:50.154Z,13.20
2022-09-18T08:18:18.486Z,13.20
2022-09-18T08:20:46.881Z,13.20
2022-09-18T08:23:15.213Z,13.20
2022-09-18T08:25:43.598Z,13.10
2022-09-18T08:28:12.307Z,13.20
2022-09-18T08:30:41.111Z,13.20
2022-09-18T08:33:12.047Z,13.20
2022-09-18T08:35:40.403Z,13.20
2022-09-18T08:38:10.410Z,13.30
2022-09-18T08:40:56.573Z,13.30
2022-09-18T08:43:52.356Z,13.40
2022-09-18T08:46:27.413Z,13.50
2022-09-18T08:49:08.387Z,13.60
2022-09-18T08:51:45.490Z,13.60
2022-09-18T08:54:27.579Z,13.60
2022-09-18T08:56:58.236Z,13.50
2022-09-18T08:59:35.881Z,13.50
2022-09-18T09:02:25.496Z,13.40
2022-09-18T09:05:01.619Z,13.30
2022-09-18T09:07:58.892Z,13.30
2022-09-18T09:10:44.088Z,13.30
2022-09-18T09:14:00.835Z,13.20
2022-09-18T09:16:43.321Z,13.20
2022-09-18T09:19:31.349Z,13.20
2022-09-18T09:22:08.791Z,13.10
2022-09-18T09:24:42.653Z,13.10
2022-09-18T09:27:23.584Z,13.10
2022-09-18T09:30:05.320Z,13.20
2022-09-18T09:32:39.976Z,13.20
2022-09-18T09:35:25.376Z,13.30
2022-09-18T09:37:55.934Z,13.30
2022-09-18T09:40:33.384Z,13.40
2022-09-18T09:43:05.110Z,13.50
2022-09-18T09:45:39.898Z,13.50
2022-09-18T09:48:17.971Z,13.60
2022-09-18T09:50:56.434Z,13.70
2022-09-18T09:53:29.017Z,13.70
2022-09-18T09:56:10.420Z,13.70
2022-09-18T09:58:50.158Z,13.60
2022-09-18T10:01:24.734Z,13.50
2022-09-18T10:04:13.334Z,13.50
2022-09-18T10:06:50.982Z,13.50
2022-09-18T10:09:37.042Z,13.50
2022-09-18T10:12:20.066Z,13.50
2022-09-18T10:14:50.551Z,13.50
2022-09-18T10:17:21.349Z,13.60
2022-09-18T10:19:50.635Z,13.60
2022-09-18T10:22:23.547Z,13.60
2022-09-18T10:25:00.281Z,13.70
2022-09-18T10:27:28.668Z,13.70
2022-09-18T10:29:57.229Z,13.80
2022-09-18T10:32:37.959Z,13.70
2022-09-18T10:35:42.353Z,13.80
2022-09-18T10:38:33.556Z,13.70
2022-09-18T10:41:22.722Z,13.70
2022-09-18T10:43:57.630Z,13.70
2022-09-18T10:46:29.475Z,13.70
2022-09-18T10:49:02.369Z,13.80
2022-09-18T10:51:30.872Z,13.80
2022-09-18T10:54:05.291Z,13.80
2022-09-18T10:56:35.041Z,13.80
2022-09-18T10:59:35.208Z,13.90
2022-09-18T11:02:07.012Z,13.90
2022-09-18T11:04:35.795Z,14.00
2022-09-18T11:07:07.625Z,14.00
2022-09-18T11:09:39.689Z,14.00
2022-09-18T11:12:19.179Z,14.00
2022-09-18T11:14:51.569Z,14.10
2022-09-18T11:17:26.572Z,14.10
2022-09-18T11:19:58.006Z,14.10
2022-09-18T11:22:41.656Z,14.10
2022-09-18T11:25:23.330Z,14.10
2022-09-18T11:27:55.774Z,14.10
2022-09-18T11:30:27.926Z,14.00
2022-09-18T11:33:00.545Z,14.00
2022-09-18T11:35:31.586Z,14.00
2022-09-18T11:38:06.351Z,13.90
2022-09-18T11:40:45.098Z,13.90
2022-09-18T11:43:22.583Z,13.80
2022-09-18T11:46:02.636Z,13.70
2022-09-18T11:48:37.567Z,13.60
2022-09-18T11:51:15.213Z,13.50
2022-09-18T11:53:47.416Z,13.40
2022-09-18T11:56:21.626Z,13.10
2022-09-18T11:58:56.335Z,12.80
2022-09-18T12:01:36.760Z,12.70
2022-09-18T12:04:28.129Z,12.70
2022-09-18T12:07:01.358Z,12.70
2022-09-18T12:09:42.309Z,12.70
2022-09-18T12:12:17.276Z,12.70
2022-09-18T12:14:52.592Z,12.70
2022-09-18T12:17:27.790Z,12.70
2022-09-18T12:20:00.590Z,12.70
2022-09-18T12:22:35.549Z,12.80
2022-09-18T12:25:14.339Z,12.70
2022-09-18T12:27:50.748Z,12.70
2022-09-18T12:30:22.932Z,12.70
2022-09-18T12:33:08.935Z,12.70
2022-09-18T12:35:57.913Z,12.70
2022-09-18T12:38:46.084Z,12.70
2022-09-18T12:41:37.922Z,12.80
2022-09-18T12:44:50.283Z,12.80
2022-09-18T12:47:50.432Z,12.80
2022-09-18T12:50:52.788Z,12.70
2022-09-18T12:53:37.777Z,12.60
2022-09-18T12:56:31.387Z,12.60
2022-09-18T12:59:33.844Z,12.60
2022-09-18T13:02:16.332Z,12.60
2022-09-18T13:04:50.318Z,12.60
2022-09-18T13:07:23.266Z,12.50
2022-09-18T13:09:56.427Z,12.50
2022-09-18T13:12:32.238Z,12.50
2022-09-18T13:15:06.468Z,12.50
2022-09-18T13:17:39.869Z,12.50
2022-09-18T13:20:18.902Z,12.50
2022-09-18T13:22:53.441Z,12.50
2022-09-18T13:25:28.596Z,12.40
2022-09-18T13:27:58.267Z,12.40
2022-09-18T13:30:33.150Z,12.40
2022-09-18T13:33:02.946Z,12.40
2022-09-18T13:35:35.375Z,12.40
2022-09-18T13:38:19.849Z,12.40
2022-09-18T13:40:50.786Z,12.40
2022-09-18T13:43:40.511Z,12.50
2022-09-18T13:46:11.187Z,12.40
2022-09-18T13:48:46.393Z,12.40
2022-09-18T13:51:28.496Z,12.40
2022-09-18T13:54:29.314Z,12.50
2022-09-18T13:57:21.399Z,12.50
2022-09-18T13:59:55.604Z,12.50
2022-09-18T14:02:36.992Z,12.50
2022-09-18T14:05:33.413Z,12.50
2022-09-18T14:08:37.522Z,12.40
2022-09-18T14:11:17.254Z,12.40
2022-09-18T14:13:51.876Z,12.50
2022-09-18T14:16:41.416Z,12.40
2022-09-18T14:19:32.082Z,12.40
2022-09-18T14:22:01.902Z,12.40
2022-09-18T14:25:00.690Z,12.30
2022-09-18T14:27:36.136Z,12.30
2022-09-18T14:30:19.733Z,12.20
2022-09-18T14:33:21.020Z,12.20
2022-09-18T14:35:56.253Z,12.20
2022-09-18T14:38:36.240Z,12.20
2022-09-18T14:41:19.372Z,12.10
2022-09-18T14:43:54.151Z,12.10
2022-09-18T14:46:25.782Z,12.00
2022-09-18T14:48:55.297Z,12.10
2022-09-18T14:51:25.824Z,12.10
2022-09-18T14:53:56.474Z,12.00
2022-09-18T14:56:32.359Z,12.00
2022-09-18T14:59:05.331Z,11.90
2022-09-18T15:01:37.284Z,11.80
2022-09-18T15:04:08.596Z,11.90
2022-09-18T15:06:41.506Z,11.90
2022-09-18T15:09:13.050Z,11.90
2022-09-18T15:12:01.827Z,11.90
2022-09-18T15:14:42.763Z,11.90
2022-09-18T15:17:20.413Z,11.80
2022-09-18T15:20:14.538Z,11.80
2022-09-18T15:22:45.328Z,11.80
2022-09-18T15:25:14.396Z,11.80
2022-09-18T15:27:45.488Z,11.70
2022-09-18T15:30:18.716Z,11.70
2022-09-18T15:32:51.474Z,11.70
2022-09-18T15:35:23.492Z,11.60
2022-09-18T15:37:57.261Z,11.50
2022-09-18T15:40:31.481Z,11.50
2022-09-18T15:43:03.782Z,11.50
2022-09-18T15:45:34.368Z,11.50
2022-09-18T15:48:34.897Z,11.50
2022-09-18T15:51:10.158Z,11.50
2022-09-18T15:53:38.661Z,11.60
2022-09-18T15:56:11.015Z,11.60
2022-09-18T15:58:47.754Z,11.60
2022-09-18T16:01:27.920Z,11.60
2022-09-18T16:04:20.332Z,11.60
2022-09-18T16:06:57.048Z,11.60
2022-09-18T16:09:37.891Z,11.60
2022-09-18T16:12:37.825Z,11.60
2022-09-18T16:15:25.631Z,11.60
2022-09-18T16:18:05.034Z,11.50
2022-09-18T16:20:38.638Z,11.50
2022-09-18T16:23:19.798Z,11.60
2022-09-18T16:26:01.418Z,11.60
2022-09-18T16:28:33.433Z,11.50
2022-09-18T16:31:03.063Z,11.50
2022-09-18T16:33:34.364Z,11.50
2022-09-18T16:36:07.320Z,11.50
2022-09-18T16:38:36.685Z,11.50
2022-09-18T16:41:05.150Z,11.50
2022-09-18T16:43:33.513Z,11.50
2022-09-18T16:46:03.173Z,11.50
2022-09-18T16:48:31.648Z,11.50
2022-09-18T16:51:00.091Z,11.60
2022-09-18T16:53:28.840Z,11.60
2022-09-18T16:55:59.197Z,11.60
2022-09-18T16:58:29.635Z,11.50
2022-09-18T17:00:58.979Z,11.40
2022-09-18T17:03:29.285Z,11.40
2022-09-18T17:05:57.620Z,11.20
2022-09-18T17:08:25.941Z,11.20
2022-09-18T17:10:54.367Z,11.20
2022-09-18T17:13:22.805Z,11.10
2022-09-18T17:15:51.431Z,11.10
2022-09-18T17:18:19.757Z,11.10
2022-09-18T17:20:49.463Z,11.00
2022-09-18T17:23:18.045Z,10.90
2022-09-18T17:25:46.457Z,10.80
2022-09-18T17:28:17.795Z,10.70
2022-09-18T17:30:46.364Z,10.70
2022-09-18T17:33:18.543Z,10.70
2022-09-18T17:35:49.999Z,10.50
2022-09-18T17:38:18.239Z,10.50
2022-09-18T17:40:58.154Z,10.40
2022-09-18T17:43:26.542Z,10.30
2022-09-18T17:45:56.629Z,10.20
2022-09-18T17:48:26.314Z,10.20
2022-09-18T17:51:00.068Z,10.20
2022-09-18T17:53:29.196Z,10.30
2022-09-18T17:55:59.501Z,10.30
2022-09-18T17:58:28.307Z,10.20
2022-09-18T18:00:57.163Z,10.20
2022-09-18T18:03:28.184Z,10.20
2022-09-18T18:06:00.284Z,10.20
2022-09-18T18:08:29.736Z,10.20
2022-09-18T18:11:06.967Z,10.20
2022-09-18T18:13:37.594Z,10.20
2022-09-18T18:16:07.641Z,10.20
2022-09-18T18:18:37.162Z,10.20
2022-09-18T18:21:08.847Z,10.20
2022-09-18T18:23:38.451Z,10.20
2022-09-18T18:26:10.459Z,10.20
2022-09-18T18:28:40.401Z,10.20
2022-09-18T18:31:14.267Z,10.20
2022-09-18T18:33:44.383Z,10.30
2022-09-18T18:36:17.738Z,10.30
2022-09-18T18:38:49.911Z,10.30
2022-09-18T18:41:20.605Z,10.30
2022-09-18T18:43:53.902Z,10.30
2022-09-18T18:46:24.228Z,10.30
2022-09-18T18:49:02.947Z,10.30
2022-09-18T18:51:35.635Z,10.30
2022-09-18T18:54:05.775Z,10.30
2022-09-18T18:56:37.716Z,10.30
2022-09-18T18:59:08.872Z,10.30
2022-09-18T19:01:37.200Z,10.30
2022-09-18T19:04:08.518Z,10.30
2022-09-18T19:06:40.579Z,10.20
2022-09-18T19:09:11.718Z,10.20
2022-09-18T19:11:46.875Z,10.20
2022-09-18T19:14:17.479Z,10.20
2022-09-18T19:16:47.578Z,10.20
2022-09-18T19:19:19.778Z,10.10
2022-09-18T19:21:49.583Z,10.10
2022-09-18T19:24:18.661Z,10.00
2022-09-18T19:26:48.212Z,10.00
2022-09-18T19:29:21.638Z,9.90
2022-09-18T19:31:50.927Z,9.90
2022-09-18T19:34:22.035Z,9.70
2022-09-18T19:36:52.049Z,9.70
2022-09-18T19:39:24.615Z,9.60
2022-09-18T19:41:59.441Z,9.60
2022-09-18T19:44:32.816Z,9.60
2022-09-18T19:47:06.816Z,9.60
2022-09-18T19:49:38.396Z,9.50
2022-09-18T19:52:18.420Z,9.50
2022-09-18T19:54:46.994Z,9.50
2022-09-18T19:57:15.756Z,9.50
2022-09-18T19:59:44.071Z,9.40
2022-09-18T20:02:15.402Z,9.40
2022-09-18T20:04:43.903Z,9.40
2022-09-18T20:07:13.885Z,9.40
2022-09-18T20:09:42.272Z,9.40
2022-09-18T20:12:11.157Z,9.30
2022-09-18T20:14:39.437Z,9.30
2022-09-18T20:17:08.404Z,9.30
2022-09-18T20:19:36.878Z,9.30
2022-09-18T20:22:06.178Z,9.30
2022-09-18T20:24:35.874Z,9.30
2022-09-18T20:27:04.410Z,9.20
2022-09-18T20:29:33.672Z,9.20
2022-09-18T20:32:02.827Z,9.20
2022-09-18T20:34:31.079Z,9.20
2022-09-18T20:36:59.346Z,9.20
2022-09-18T20:39:27.737Z,9.20
2022-09-18T20:42:00.516Z,9.20
2022-09-18T20:44:29.429Z,9.20
2022-09-18T20:46:58.072Z,9.20
2022-09-18T20:49:26.482Z,9.20
2022-09-18T20:51:54.892Z,9.20
2022-09-18T20:54:23.223Z,9.20
2022-09-18T20:56:51.568Z,9.20
2022-09-18T20:59:21.391Z,9.20
2022-09-18T21:01:49.979Z,9.20
2022-09-18T21:04:20.628Z,9.10
2022-09-18T21:06:56.201Z,9.10
2022-09-18T21:09:26.950Z,9.10
2022-09-18T21:11:56.700Z,9.10
2022-09-18T21:14:27.449Z,9.10
2022-09-18T21:16:56.014Z,9.10
2022-09-18T21:19:26.318Z,9.10
2022-09-18T21:21:54.921Z,9.10
2022-09-18T21:24:23.552Z,9.10
2022-09-18T21:26:52.025Z,9.10
2022-09-18T21:29:23.387Z,9.10
2022-09-18T21:31:55.600Z,9.10
2022-09-18T21:34:26.884Z,9.10
2022-09-18T21:36:57.716Z,9.00
2022-09-18T21:39:28.645Z,9.00
2022-09-18T21:41:57.511Z,9.00
2022-09-18T21:44:28.484Z,9.00
2022-09-18T21:47:02.032Z,9.00
2022-09-18T21:49:31.352Z,8.90
2022-09-18T21:52:02.056Z,8.90
2022-09-18T21:54:31.890Z,8.90
2022-09-18T21:57:01.022Z,8.80
2022-09-18T21:59:31.666Z,8.80
2022-09-18T22:02:03.241Z,8.80
2022-09-18T22:04:33.974Z,8.80
2022-09-18T22:07:03.070Z,8.80
2022-09-18T22:09:35.030Z,8.70
2022-09-18T22:12:03.712Z,8.70
2022-09-18T22:14:34.736Z,8.80
2022-09-18T22:17:07.473Z,8.70
2022-09-18T22:19:40.590Z,8.70
2022-09-18T22:22:10.423Z,8.80
2022-09-18T22:24:39.343Z,8.70
2022-09-18T22:27:08.664Z,8.70
2022-09-18T22:29:39.593Z,8.70
2022-09-18T22:32:10.132Z,8.70
2022-09-18T22:34:38.663Z,8.70
2022-09-18T22:37:07.830Z,8.70
2022-09-18T22:39:36.196Z,8.70
2022-09-18T22:42:05.050Z,8.70
2022-09-18T22:44:33.375Z,8.70
2022-09-18T22:47:03.071Z,8.70
2022-09-18T22:49:32.792Z,8.70
2022-09-18T22:52:01.100Z,8.70
2022-09-18T22:54:29.528Z,8.70
2022-09-18T22:56:57.764Z,8.70
2022-09-18T22:59:28.557Z,8.70
2022-09-18T23:02:00.537Z,8.70
2022-09-18T23:04:33.651Z,8.70
2022-09-18T23:07:03.374Z,8.80
2022-09-18T23:09:32.385Z,8.70
2022-09-18T23:12:01.082Z,8.70
2022-09-18T23:14:31.226Z,8.70
2022-09-18T23:17:01.537Z,8.70
2022-09-18T23:19:34.112Z,8.70
2022-09-18T23:22:02.922Z,8.70
2022-09-18T23:24:31.790Z,8.70
2022-09-18T23:27:00.517Z,8.70
2022-09-18T23:29:31.983Z,8.70
2022-09-18T23:32:00.849Z,8.70
2022-09-18T23:34:33.816Z,8.70
2022-09-18T23:37:02.584Z,8.70
2022-09-18T23:39:33.574Z,8.70
2022-09-18T23:42:05.838Z,8.70
2022-09-18T23:44:34.501Z,8.60
2022-09-18T23:47:03.194Z,8.60
2022-09-18T23:49:33.492Z,8.60
2022-09-18T23:52:02.813Z,8.60
2022-09-18T23:54:32.783Z,8.60
2022-09-18T23:57:01.115Z,8.60
2022-09-18T23:59:29.805Z,8.60
